sensor_id;sensor_type;location;lat;lon;timestamp;temperature;humidity
19847;DHT22;10084;50.518;8.588;2023-03-04T05:32:34;20.40;35.20
19847;DHT22;10084;50.518;8.588;2023-03-04T05:34:59;20.40;35.20
19847;DHT22;10084;50.518;8.588;2023-03-04T05:37:25;20.40;35.20
19847;DHT22;10084;50.518;8.588;2023-03-04T05:39:52;20.50;35.30
19847;DHT22;10084;50.518;8.588;2023-03-04T05:42:18;20.50;35.20
19847;DHT22;10084;50.518;8.588;2023-03-04T05:44:43;20.60;35.30
19847;DHT22;10084;50.518;8.588;2023-03-04T05:47:09;20.60;35.20
19847;DHT22;10084;50.518;8.588;2023-03-04T05:49:35;20.60;35.20
19847;DHT22;10084;50.518;8.588;2023-03-04T05:52:01;20.60;35.20
19847;DHT22;10084;50.518;8.588;2023-03-04T05:54:26;20.60;35.20
19847;DHT22;10084;50.518;8.588;2023-03-04T05:56:52;20.60;35.10
19847;DHT22;10084;50.518;8.588;2023-03-04T05:59:19;20.70;35.20
19847;DHT22;10084;50.518;8.588;2023-03-04T06:01:46;20.70;35.10
19847;DHT22;10084;50.518;8.588;2023-03-04T06:04:11;20.70;35.10
19847;DHT22;10084;50.518;8.588;2023-03-04T06:06:37;20.70;35.10
19847;DHT22;10084;50.518;8.588;2023-03-04T06:09:03;20.70;35.10
19847;DHT22;10084;50.518;8.588;2023-03-04T06:11:29;20.70;35.00
19847;DHT22;10084;50.518;8.588;2023-03-04T06:13:55;20.80;35.10
19847;DHT22;10084;50.518;8.588;2023-03-04T06:16:21;20.80;35.10
19847;DHT22;10084;50.518;8.588;2023-03-04T06:18:46;20.80;35.00
19847;DHT22;10084;50.518;8.588;2023-03-04T06:21:12;20.80;35.00
19847;DHT22;10084;50.518;8.588;2023-03-04T06:23:38;20.80;35.10
19847;DHT22;10084;50.518;8.588;2023-03-04T06:26:04;20.80;35.00
19847;DHT22;10084;50.518;8.588;2023-03-04T06:28:33;20.80;35.00
19847;DHT22;10084;50.518;8.588;2023-03-04T06:30:59;20.80;35.00
19847;DHT22;10084;50.518;8.588;2023-03-04T06:33:25;20.80;34.90
19847;DHT22;10084;50.518;8.588;2023-03-04T06:35:55;20.80;34.90
19847;DHT22;10084;50.518;8.588;2023-03-04T06:38:21;20.80;34.90
19847;DHT22;10084;50.518;8.588;2023-03-04T06:40:47;20.80;34.90
19847;DHT22;10084;50.518;8.588;2023-03-04T06:43:13;20.80;34.90
19847;DHT22;10084;50.518;8.588;2023-03-04T06:45:39;20.80;34.90
19847;DHT22;10084;50.518;8.588;2023-03-04T06:48:05;20.80;34.80
19847;DHT22;10084;50.518;8.588;2023-03-04T06:50:30;20.80;34.80
19847;DHT22;10084;50.518;8.588;2023-03-04T06:52:56;20.90;34.90
19847;DHT22;10084;50.518;8.588;2023-03-04T06:55:23;20.90;34.90
19847;DHT22;10084;50.518;8.588;2023-03-04T06:57:49;20.90;34.90
19847;DHT22;10084;50.518;8.588;2023-03-04T07:00:15;20.90;34.90
19847;DHT22;10084;50.518;8.588;2023-03-04T07:02:41;20.90;34.90
19847;DHT22;10084;50.518;8.588;2023-03-04T07:05:09;20.90;34.90
19847;DHT22;10084;50.518;8.588;2023-03-04T07:07:35;21.00;34.90
19847;DHT22;10084;50.518;8.588;2023-03-04T07:10:01;21.00;34.80
19847;DHT22;10084;50.518;8.588;2023-03-04T07:12:26;21.00;34.80
19847;DHT22;10084;50.518;8.588;2023-03-04T07:14:52;21.00;34.80
19847;DHT22;10084;50.518;8.588;2023-03-04T07:17:18;21.00;34.80
19847;DHT22;10084;50.518;8.588;2023-03-04T07:19:44;21.00;34.80
19847;DHT22;10084;50.518;8.588;2023-03-04T07:22:10;21.00;34.80
19847;DHT22;10084;50.518;8.588;2023-03-04T07:24:35;21.00;34.70
19847;DHT22;10084;50.518;8.588;2023-03-04T07:27:01;21.10;34.80
19847;DHT22;10084;50.518;8.588;2023-03-04T07:29:27;21.10;34.80
19847;DHT22;10084;50.518;8.588;2023-03-04T07:31:53;21.10;34.80
19847;DHT22;10084;50.518;8.588;2023-03-04T07:34:20;21.10;34.70
19847;DHT22;10084;50.518;8.588;2023-03-04T07:36:45;21.10;34.70
19847;DHT22;10084;50.518;8.588;2023-03-04T07:39:12;21.10;34.70
19847;DHT22;10084;50.518;8.588;2023-03-04T07:41:39;21.10;34.70
19847;DHT22;10084;50.518;8.588;2023-03-04T07:44:06;21.10;34.70
19847;DHT22;10084;50.518;8.588;2023-03-04T07:46:32;21.10;34.70
19847;DHT22;10084;50.518;8.588;2023-03-04T07:48:58;21.10;34.70
19847;DHT22;10084;50.518;8.588;2023-03-04T07:51:25;21.10;34.60
19847;DHT22;10084;50.518;8.588;2023-03-04T07:53:55;21.20;34.70
19847;DHT22;10084;50.518;8.588;2023-03-04T07:56:23;21.20;35.30
19847;DHT22;10084;50.518;8.588;2023-03-04T07:58:50;21.20;34.70
19847;DHT22;10084;50.518;8.588;2023-03-04T08:01:20;21.20;34.70
19847;DHT22;10084;50.518;8.588;2023-03-04T08:03:47;21.20;34.60
19847;DHT22;10084;50.518;8.588;2023-03-04T08:06:14;21.20;34.60
19847;DHT22;10084;50.518;8.588;2023-03-04T08:08:41;21.20;34.60
19847;DHT22;10084;50.518;8.588;2023-03-04T08:11:19;21.20;34.60
19847;DHT22;10084;50.518;8.588;2023-03-04T08:13:45;21.20;34.60
19847;DHT22;10084;50.518;8.588;2023-03-04T08:16:16;21.30;34.60
19847;DHT22;10084;50.518;8.588;2023-03-04T08:18:44;21.20;34.60
19847;DHT22;10084;50.518;8.588;2023-03-04T08:21:11;21.20;34.60
19847;DHT22;10084;50.518;8.588;2023-03-04T08:23:37;21.30;34.60
19847;DHT22;10084;50.518;8.588;2023-03-04T08:26:08;21.20;34.50
19847;DHT22;10084;50.518;8.588;2023-03-04T08:28:34;21.30;34.60
19847;DHT22;10084;50.518;8.588;2023-03-04T08:31:00;21.30;34.60
19847;DHT22;10084;50.518;8.588;2023-03-04T08:33:26;21.30;34.60
19847;DHT22;10084;50.518;8.588;2023-03-04T08:35:53;21.30;34.50
19847;DHT22;10084;50.518;8.588;2023-03-04T08:38:19;21.30;34.60
19847;DHT22;10084;50.518;8.588;2023-03-04T08:40:45;21.30;34.60
19847;DHT22;10084;50.518;8.588;2023-03-04T08:43:16;21.30;34.60
19847;DHT22;10084;50.518;8.588;2023-03-04T08:45:42;21.30;34.60
19847;DHT22;10084;50.518;8.588;2023-03-04T08:48:10;21.30;34.50
19847;DHT22;10084;50.518;8.588;2023-03-04T08:50:36;21.30;34.50
19847;DHT22;10084;50.518;8.588;2023-03-04T08:53:02;21.30;34.50
19847;DHT22;10084;50.518;8.588;2023-03-04T08:55:27;21.30;34.50
19847;DHT22;10084;50.518;8.588;2023-03-04T08:57:53;21.30;34.50
19847;DHT22;10084;50.518;8.588;2023-03-04T09:00:20;21.30;34.50
19847;DHT22;10084;50.518;8.588;2023-03-04T09:02:46;21.30;34.50
19847;DHT22;10084;50.518;8.588;2023-03-04T09:05:12;21.30;34.50
19847;DHT22;10084;50.518;8.588;2023-03-04T09:07:38;21.30;35.20
19847;DHT22;10084;50.518;8.588;2023-03-04T09:10:04;21.30;34.50
19847;DHT22;10084;50.518;8.588;2023-03-04T09:12:30;21.30;34.50
19847;DHT22;10084;50.518;8.588;2023-03-04T09:14:56;21.30;34.50
19847;DHT22;10084;50.518;8.588;2023-03-04T09:17:22;21.30;34.50
19847;DHT22;10084;50.518;8.588;2023-03-04T09:19:48;21.30;34.50
19847;DHT22;10084;50.518;8.588;2023-03-04T09:22:27;21.30;34.50
19847;DHT22;10084;50.518;8.588;2023-03-04T09:25:00;21.30;34.50
19847;DHT22;10084;50.518;8.588;2023-03-04T09:27:26;21.30;34.50
19847;DHT22;10084;50.518;8.588;2023-03-04T09:29:51;21.30;34.50
19847;DHT22;10084;50.518;8.588;2023-03-04T09:32:17;21.30;34.50
19847;DHT22;10084;50.518;8.588;2023-03-04T09:34:43;21.30;34.50
19847;DHT22;10084;50.518;8.588;2023-03-04T09:37:09;21.30;34.50
19847;DHT22;10084;50.518;8.588;2023-03-04T09:39:34;21.20;34.50
19847;DHT22;10084;50.518;8.588;2023-03-04T09:42:01;21.20;34.50
19847;DHT22;10084;50.518;8.588;2023-03-04T09:44:31;21.20;34.50
19847;DHT22;10084;50.518;8.588;2023-03-04T09:47:03;21.30;34.60
19847;DHT22;10084;50.518;8.588;2023-03-04T09:49:30;21.20;34.50
19847;DHT22;10084;50.518;8.588;2023-03-04T10:05:55;21.30;34.50
19847;DHT22;10084;50.518;8.588;2023-03-04T10:11:23;21.30;34.50
19847;DHT22;10084;50.518;8.588;2023-03-04T10:24:47;21.10;33.90
19847;DHT22;10084;50.518;8.588;2023-03-04T10:27:16;20.90;33.80
19847;DHT22;10084;50.518;8.588;2023-03-04T10:29:43;20.80;33.70
19847;DHT22;10084;50.518;8.588;2023-03-04T10:32:16;20.60;33.60
19847;DHT22;10084;50.518;8.588;2023-03-04T10:34:42;20.50;33.60
19847;DHT22;10084;50.518;8.588;2023-03-04T10:37:08;20.40;33.60
19847;DHT22;10084;50.518;8.588;2023-03-04T10:39:44;20.30;33.50
19847;DHT22;10084;50.518;8.588;2023-03-04T10:44:49;20.10;33.40
19847;DHT22;10084;50.518;8.588;2023-03-04T10:47:16;19.90;33.40
19847;DHT22;10084;50.518;8.588;2023-03-04T10:49:51;19.90;33.50
19847;DHT22;10084;50.518;8.588;2023-03-04T10:52:46;19.80;33.40
19847;DHT22;10084;50.518;8.588;2023-03-04T10:55:17;19.70;33.30
19847;DHT22;10084;50.518;8.588;2023-03-04T10:57:47;19.60;33.30
19847;DHT22;10084;50.518;8.588;2023-03-04T11:02:43;19.40;33.30
19847;DHT22;10084;50.518;8.588;2023-03-04T11:05:20;19.40;33.30
19847;DHT22;10084;50.518;8.588;2023-03-04T11:10:22;19.20;33.20
19847;DHT22;10084;50.518;8.588;2023-03-04T11:12:58;19.10;33.20
19847;DHT22;10084;50.518;8.588;2023-03-04T11:15:26;19.10;33.30
19847;DHT22;10084;50.518;8.588;2023-03-04T11:18:45;19.10;33.40
19847;DHT22;10084;50.518;8.588;2023-03-04T11:20:47;19.00;33.50
19847;DHT22;10084;50.518;8.588;2023-03-04T11:23:18;19.00;33.60
19847;DHT22;10084;50.518;8.588;2023-03-04T11:26:01;18.90;33.60
19847;DHT22;10084;50.518;8.588;2023-03-04T11:28:39;18.90;33.60
19847;DHT22;10084;50.518;8.588;2023-03-04T11:31:14;18.80;33.60
19847;DHT22;10084;50.518;8.588;2023-03-04T15:37:07;19.40;36.20
19847;DHT22;10084;50.518;8.588;2023-03-04T15:39:36;19.00;36.40
19847;DHT22;10084;50.518;8.588;2023-03-04T15:42:01;18.00;36.80
19847;DHT22;10084;50.518;8.588;2023-03-04T15:44:27;16.90;37.60
19847;DHT22;10084;50.518;8.588;2023-03-04T15:46:53;15.90;38.40
19847;DHT22;10084;50.518;8.588;2023-03-04T15:49:18;15.00;39.20
19847;DHT22;10084;50.518;8.588;2023-03-04T15:51:44;14.20;40.00
19847;DHT22;10084;50.518;8.588;2023-03-04T15:54:11;13.50;40.70
19847;DHT22;10084;50.518;8.588;2023-03-04T15:56:38;12.80;41.30
19847;DHT22;10084;50.518;8.588;2023-03-04T15:59:12;12.30;41.80
19847;DHT22;10084;50.518;8.588;2023-03-04T16:01:38;11.80;42.40
19847;DHT22;10084;50.518;8.588;2023-03-04T16:04:04;11.40;42.70
19847;DHT22;10084;50.518;8.588;2023-03-04T16:06:31;11.00;43.20
19847;DHT22;10084;50.518;8.588;2023-03-04T16:08:58;10.70;43.60
19847;DHT22;10084;50.518;8.588;2023-03-04T16:11:26;10.50;43.90
19847;DHT22;10084;50.518;8.588;2023-03-04T16:13:53;10.20;44.20
19847;DHT22;10084;50.518;8.588;2023-03-04T16:16:19;10.00;44.50
19847;DHT22;10084;50.518;8.588;2023-03-04T16:18:45;9.80;44.80
19847;DHT22;10084;50.518;8.588;2023-03-04T16:21:14;9.70;45.10
19847;DHT22;10084;50.518;8.588;2023-03-04T16:23:43;9.50;45.30
19847;DHT22;10084;50.518;8.588;2023-03-04T16:26:13;9.40;45.50
19847;DHT22;10084;50.518;8.588;2023-03-04T16:28:39;9.20;45.80
19847;DHT22;10084;50.518;8.588;2023-03-04T16:31:05;9.10;46.00
19847;DHT22;10084;50.518;8.588;2023-03-04T16:33:30;9.00;46.20
19847;DHT22;10084;50.518;8.588;2023-03-04T16:35:56;8.90;46.50
19847;DHT22;10084;50.518;8.588;2023-03-04T16:38:26;8.80;46.70
19847;DHT22;10084;50.518;8.588;2023-03-04T16:40:55;8.80;47.00
19847;DHT22;10084;50.518;8.588;2023-03-04T16:43:21;8.70;47.20
19847;DHT22;10084;50.518;8.588;2023-03-04T16:45:47;8.60;47.40
19847;DHT22;10084;50.518;8.588;2023-03-04T16:48:13;8.60;47.70
19847;DHT22;10084;50.518;8.588;2023-03-04T16:50:40;8.50;47.90
19847;DHT22;10084;50.518;8.588;2023-03-04T16:53:36;8.40;48.10
19847;DHT22;10084;50.518;8.588;2023-03-04T16:56:06;8.30;48.30
19847;DHT22;10084;50.518;8.588;2023-03-04T16:58:35;8.30;48.50
19847;DHT22;10084;50.518;8.588;2023-03-04T17:01:01;8.20;48.70
19847;DHT22;10084;50.518;8.588;2023-03-04T17:03:27;8.20;49.00
19847;DHT22;10084;50.518;8.588;2023-03-04T17:05:53;8.10;49.10
19847;DHT22;10084;50.518;8.588;2023-03-04T17:08:18;8.10;49.50
19847;DHT22;10084;50.518;8.588;2023-03-04T17:10:44;8.00;49.60
19847;DHT22;10084;50.518;8.588;2023-03-04T17:13:10;8.00;49.80
19847;DHT22;10084;50.518;8.588;2023-03-04T17:15:35;7.90;50.00
19847;DHT22;10084;50.518;8.588;2023-03-04T17:18:01;7.90;50.10
19847;DHT22;10084;50.518;8.588;2023-03-04T17:20:27;7.90;50.30
19847;DHT22;10084;50.518;8.588;2023-03-04T17:22:52;7.80;50.60
19847;DHT22;10084;50.518;8.588;2023-03-04T17:25:18;7.80;50.80
19847;DHT22;10084;50.518;8.588;2023-03-04T17:27:44;7.70;50.90
19847;DHT22;10084;50.518;8.588;2023-03-04T17:30:11;7.60;51.20
19847;DHT22;10084;50.518;8.588;2023-03-04T17:32:37;7.60;51.40
19847;DHT22;10084;50.518;8.588;2023-03-04T17:35:08;7.60;51.60
19847;DHT22;10084;50.518;8.588;2023-03-04T17:37:33;7.50;51.80
19847;DHT22;10084;50.518;8.588;2023-03-04T17:40:04;7.50;52.00
19847;DHT22;10084;50.518;8.588;2023-03-04T17:42:30;7.40;52.20
19847;DHT22;10084;50.518;8.588;2023-03-04T17:44:56;7.40;52.30
19847;DHT22;10084;50.518;8.588;2023-03-04T17:47:22;7.40;52.50
19847;DHT22;10084;50.518;8.588;2023-03-04T17:49:47;7.40;52.60
19847;DHT22;10084;50.518;8.588;2023-03-04T17:52:13;7.30;52.80
19847;DHT22;10084;50.518;8.588;2023-03-04T17:54:39;7.30;53.00
19847;DHT22;10084;50.518;8.588;2023-03-04T17:57:05;7.30;53.30
19847;DHT22;10084;50.518;8.588;2023-03-04T17:59:30;7.20;53.40
19847;DHT22;10084;50.518;8.588;2023-03-04T18:01:56;7.20;53.60
19847;DHT22;10084;50.518;8.588;2023-03-04T18:04:22;7.20;53.90
19847;DHT22;10084;50.518;8.588;2023-03-04T18:06:48;7.20;54.10
19847;DHT22;10084;50.518;8.588;2023-03-04T18:09:14;7.10;54.10
19847;DHT22;10084;50.518;8.588;2023-03-04T18:11:40;7.20;54.40
19847;DHT22;10084;50.518;8.588;2023-03-04T18:14:06;7.20;54.60
19847;DHT22;10084;50.518;8.588;2023-03-04T18:16:33;7.20;54.70
19847;DHT22;10084;50.518;8.588;2023-03-04T18:18:59;7.10;54.80
19847;DHT22;10084;50.518;8.588;2023-03-04T18:21:27;7.20;55.00
19847;DHT22;10084;50.518;8.588;2023-03-04T18:23:54;7.10;55.10
19847;DHT22;10084;50.518;8.588;2023-03-04T18:26:20;7.20;55.40
19847;DHT22;10084;50.518;8.588;2023-03-04T18:28:51;7.20;55.50
19847;DHT22;10084;50.518;8.588;2023-03-04T18:31:19;7.20;55.70
19847;DHT22;10084;50.518;8.588;2023-03-04T18:33:44;7.10;55.70
19847;DHT22;10084;50.518;8.588;2023-03-04T18:36:12;7.10;55.80
19847;DHT22;10084;50.518;8.588;2023-03-04T18:38:38;7.10;55.90
19847;DHT22;10084;50.518;8.588;2023-03-04T18:41:06;7.10;56.10
19847;DHT22;10084;50.518;8.588;2023-03-04T18:43:32;7.10;56.20
19847;DHT22;10084;50.518;8.588;2023-03-04T18:46:03;7.00;56.30
19847;DHT22;10084;50.518;8.588;2023-03-04T18:48:32;7.00;56.40
19847;DHT22;10084;50.518;8.588;2023-03-04T18:50:58;7.00;56.60
19847;DHT22;10084;50.518;8.588;2023-03-04T18:53:26;6.90;56.60
19847;DHT22;10084;50.518;8.588;2023-03-04T18:55:53;6.90;56.80
19847;DHT22;10084;50.518;8.588;2023-03-04T18:58:22;6.90;56.90
19847;DHT22;10084;50.518;8.588;2023-03-04T19:00:47;6.90;57.10
19847;DHT22;10084;50.518;8.588;2023-03-04T19:03:13;6.80;57.20
19847;DHT22;10084;50.518;8.588;2023-03-04T19:05:39;6.80;57.30
19847;DHT22;10084;50.518;8.588;2023-03-04T19:08:06;6.80;57.40
19847;DHT22;10084;50.518;8.588;2023-03-04T19:10:32;6.80;57.60
19847;DHT22;10084;50.518;8.588;2023-03-04T19:12:58;6.80;57.70
19847;DHT22;10084;50.518;8.588;2023-03-04T19:15:24;6.80;59.00
19847;DHT22;10084;50.518;8.588;2023-03-04T19:20:17;6.70;57.40
19847;DHT22;10084;50.518;8.588;2023-03-04T19:22:43;6.70;58.10
19847;DHT22;10084;50.518;8.588;2023-03-04T19:25:09;6.70;58.20
19847;DHT22;10084;50.518;8.588;2023-03-04T19:27:35;6.70;58.30
19847;DHT22;10084;50.518;8.588;2023-03-04T19:30:01;6.70;58.40
19847;DHT22;10084;50.518;8.588;2023-03-04T19:32:27;6.70;58.50
19847;DHT22;10084;50.518;8.588;2023-03-04T19:34:53;6.70;58.60
19847;DHT22;10084;50.518;8.588;2023-03-04T19:37:18;6.70;58.70
19847;DHT22;10084;50.518;8.588;2023-03-04T19:39:44;6.60;58.70
19847;DHT22;10084;50.518;8.588;2023-03-04T19:42:11;6.60;58.80
19847;DHT22;10084;50.518;8.588;2023-03-04T19:44:38;6.60;58.90
19847;DHT22;10084;50.518;8.588;2023-03-04T19:47:04;6.60;59.00
19847;DHT22;10084;50.518;8.588;2023-03-04T19:49:30;6.60;59.10
19847;DHT22;10084;50.518;8.588;2023-03-04T19:51:56;6.60;59.20
19847;DHT22;10084;50.518;8.588;2023-03-04T19:54:22;6.50;59.20
19847;DHT22;10084;50.518;8.588;2023-03-04T19:56:48;6.60;59.40
19847;DHT22;10084;50.518;8.588;2023-03-04T19:59:13;6.60;59.40
19847;DHT22;10084;50.518;8.588;2023-03-04T20:01:40;6.60;59.50
19847;DHT22;10084;50.518;8.588;2023-03-04T20:04:11;6.60;59.50
19847;DHT22;10084;50.518;8.588;2023-03-04T20:06:39;6.60;59.60
19847;DHT22;10084;50.518;8.588;2023-03-04T20:09:05;6.50;59.60
19847;DHT22;10084;50.518;8.588;2023-03-04T20:11:32;6.50;59.70
19847;DHT22;10084;50.518;8.588;2023-03-04T20:13:59;6.50;59.80
19847;DHT22;10084;50.518;8.588;2023-03-04T20:16:26;6.50;59.90
19847;DHT22;10084;50.518;8.588;2023-03-04T20:18:52;6.50;59.90
19847;DHT22;10084;50.518;8.588;2023-03-04T20:21:18;6.50;60.00
19847;DHT22;10084;50.518;8.588;2023-03-04T20:23:44;6.50;60.10
19847;DHT22;10084;50.518;8.588;2023-03-04T20:26:10;6.50;60.20
19847;DHT22;10084;50.518;8.588;2023-03-04T20:28:48;6.40;60.30
19847;DHT22;10084;50.518;8.588;2023-03-04T20:31:19;6.40;60.40
19847;DHT22;10084;50.518;8.588;2023-03-04T20:33:47;6.40;60.40
19847;DHT22;10084;50.518;8.588;2023-03-04T20:36:14;6.40;60.50
19847;DHT22;10084;50.518;8.588;2023-03-04T20:38:40;6.40;60.60
19847;DHT22;10084;50.518;8.588;2023-03-04T20:41:06;6.40;60.70
19847;DHT22;10084;50.518;8.588;2023-03-04T20:43:31;6.40;60.70
19847;DHT22;10084;50.518;8.588;2023-03-04T20:46:23;6.40;60.80
19847;DHT22;10084;50.518;8.588;2023-03-04T20:48:49;6.40;60.90
19847;DHT22;10084;50.518;8.588;2023-03-04T20:51:15;6.40;60.90
19847;DHT22;10084;50.518;8.588;2023-03-04T20:53:40;6.40;61.00
19847;DHT22;10084;50.518;8.588;2023-03-04T20:56:06;6.40;61.10
19847;DHT22;10084;50.518;8.588;2023-03-04T20:58:32;6.30;61.10
19847;DHT22;10084;50.518;8.588;2023-03-04T21:00:59;6.30;61.20
19847;DHT22;10084;50.518;8.588;2023-03-04T21:03:24;6.30;61.30
19847;DHT22;10084;50.518;8.588;2023-03-04T21:05:50;6.40;61.40
19847;DHT22;10084;50.518;8.588;2023-03-04T21:08:16;6.30;61.40
19847;DHT22;10084;50.518;8.588;2023-03-04T21:10:41;6.30;62.20
19847;DHT22;10084;50.518;8.588;2023-03-04T21:13:07;6.30;61.60
19847;DHT22;10084;50.518;8.588;2023-03-04T21:15:36;6.40;61.60
19847;DHT22;10084;50.518;8.588;2023-03-04T21:18:01;6.40;61.60
19847;DHT22;10084;50.518;8.588;2023-03-04T21:20:27;6.40;61.60
19847;DHT22;10084;50.518;8.588;2023-03-04T21:22:53;6.40;61.60
19847;DHT22;10084;50.518;8.588;2023-03-04T21:25:19;6.40;61.60
19847;DHT22;10084;50.518;8.588;2023-03-04T21:27:47;6.50;61.70
19847;DHT22;10084;50.518;8.588;2023-03-04T21:30:13;6.40;61.60
19847;DHT22;10084;50.518;8.588;2023-03-04T21:32:39;6.50;61.70
19847;DHT22;10084;50.518;8.588;2023-03-04T21:35:05;6.50;61.70
19847;DHT22;10084;50.518;8.588;2023-03-04T21:37:31;6.50;61.70
19847;DHT22;10084;50.518;8.588;2023-03-04T21:39:57;6.50;61.70
19847;DHT22;10084;50.518;8.588;2023-03-04T21:42:23;6.50;61.70
19847;DHT22;10084;50.518;8.588;2023-03-04T21:44:50;6.50;61.70
19847;DHT22;10084;50.518;8.588;2023-03-04T21:47:16;6.50;61.70
19847;DHT22;10084;50.518;8.588;2023-03-04T21:49:42;6.60;61.80
19847;DHT22;10084;50.518;8.588;2023-03-04T21:52:08;6.60;61.80
19847;DHT22;10084;50.518;8.588;2023-03-04T21:54:34;6.60;61.80
19847;DHT22;10084;50.518;8.588;2023-03-04T21:57:00;6.60;61.80
19847;DHT22;10084;50.518;8.588;2023-03-04T21:59:26;6.60;61.70
19847;DHT22;10084;50.518;8.588;2023-03-04T22:01:52;6.70;61.80
19847;DHT22;10084;50.518;8.588;2023-03-04T22:04:19;6.60;61.60
19847;DHT22;10084;50.518;8.588;2023-03-04T22:06:45;6.70;61.80
19847;DHT22;10084;50.518;8.588;2023-03-04T22:09:10;6.60;61.60
19847;DHT22;10084;50.518;8.588;2023-03-04T22:11:37;6.70;61.70
19847;DHT22;10084;50.518;8.588;2023-03-04T22:14:02;6.70;62.40
19847;DHT22;10084;50.518;8.588;2023-03-04T22:16:29;6.70;61.70
19847;DHT22;10084;50.518;8.588;2023-03-04T22:18:55;6.70;61.60
19847;DHT22;10084;50.518;8.588;2023-03-04T22:21:21;6.60;61.50
19847;DHT22;10084;50.518;8.588;2023-03-04T22:23:47;6.70;61.60
19847;DHT22;10084;50.518;8.588;2023-03-04T22:26:19;6.70;61.60
19847;DHT22;10084;50.518;8.588;2023-03-04T22:28:45;6.70;61.60
19847;DHT22;10084;50.518;8.588;2023-03-04T22:31:20;6.70;61.50
19847;DHT22;10084;50.518;8.588;2023-03-04T22:33:49;6.70;61.60
19847;DHT22;10084;50.518;8.588;2023-03-04T22:36:15;6.70;61.50
19847;DHT22;10084;50.518;8.588;2023-03-04T22:38:41;6.60;61.40
19847;DHT22;10084;50.518;8.588;2023-03-04T22:41:16;6.60;61.40
19847;DHT22;10084;50.518;8.588;2023-03-04T22:43:42;6.60;61.40
19847;DHT22;10084;50.518;8.588;2023-03-04T22:46:16;6.60;61.40
19847;DHT22;10084;50.518;8.588;2023-03-04T22:48:43;6.50;61.30
19847;DHT22;10084;50.518;8.588;2023-03-04T22:51:09;6.50;61.20
19847;DHT22;10084;50.518;8.588;2023-03-04T22:53:36;6.50;61.20
19847;DHT22;10084;50.518;8.588;2023-03-04T22:56:03;6.50;61.10
19847;DHT22;10084;50.518;8.588;2023-03-04T22:58:29;6.50;61.10
19847;DHT22;10084;50.518;8.588;2023-03-04T23:00:55;6.40;61.10
19847;DHT22;10084;50.518;8.588;2023-03-04T23:03:20;6.50;61.10
19847;DHT22;10084;50.518;8.588;2023-03-04T23:05:46;6.50;61.00
19847;DHT22;10084;50.518;8.588;2023-03-04T23:08:12;6.40;60.90
19847;DHT22;10084;50.518;8.588;2023-03-04T23:10:40;6.40;60.80
19847;DHT22;10084;50.518;8.588;2023-03-04T23:13:05;6.40;60.90
19847;DHT22;10084;50.518;8.588;2023-03-04T23:15:31;6.40;60.90
19847;DHT22;10084;50.518;8.588;2023-03-04T23:17:57;6.40;60.90
19847;DHT22;10084;50.518;8.588;2023-03-04T23:20:23;6.40;60.80
19847;DHT22;10084;50.518;8.588;2023-03-04T23:22:48;6.40;60.80
19847;DHT22;10084;50.518;8.588;2023-03-04T23:25:14;6.40;60.80
19847;DHT22;10084;50.518;8.588;2023-03-04T23:27:41;6.50;60.70
19847;DHT22;10084;50.518;8.588;2023-03-04T23:30:16;6.50;60.60
19847;DHT22;10084;50.518;8.588;2023-03-04T23:32:42;6.50;60.50
19847;DHT22;10084;50.518;8.588;2023-03-04T23:35:09;6.50;60.40
19847;DHT22;10084;50.518;8.588;2023-03-04T23:37:35;6.60;60.50
19847;DHT22;10084;50.518;8.588;2023-03-04T23:40:00;6.50;60.40
19847;DHT22;10084;50.518;8.588;2023-03-04T23:42:26;6.60;60.30
19847;DHT22;10084;50.518;8.588;2023-03-04T23:44:52;6.60;60.20
19847;DHT22;10084;50.518;8.588;2023-03-04T23:47:18;6.60;60.10
19847;DHT22;10084;50.518;8.588;2023-03-04T23:49:43;6.60;60.10
19847;DHT22;10084;50.518;8.588;2023-03-04T23:52:09;6.60;60.00
19847;DHT22;10084;50.518;8.588;2023-03-04T23:54:35;6.60;59.90
19847;DHT22;10084;50.518;8.588;2023-03-04T23:57:00;6.50;59.80
19847;DHT22;10084;50.518;8.588;2023-03-04T23:59:27;6.50;59.90
